Hele On Kaka'ako 5K

Age Group Results

May 12, 2013


Results By Time Line www.TimeLineHawaii.com


Men: 0- 9 10-14 15-19 20-24 25-29 30-34 35-39 40-44 45-49 50-54 55-59 60-64 65-69 70-74 75-79 80-99
Women: 0- 9 10-14 15-19 20-24 25-29 30-34 35-39 40-44 45-49 50-54 55-59 60-64 65-69 70-74 75-79 80-99

Run

Female Open Winners

Place Name City Bib No Age Overall Total Time Pace
1 SARAH JACKSON EWA BEACH HI 324 22 7 21:03.1 6:47/M
2 LISA GONZALES-GILE EDWARDS CO 355 55 10 22:14.4 7:10/M
3 KYRA OKAZAKI HONOLULU HI 385 30 12 22:49.4 7:22/M
Top

Female 9 and under

Place Name City Bib No Age Overall Total Time Pace
1 ANGELA UYEDA HONOLULU HI 377 9 65 34:19.4 11:04/M
2 SAMANTHA BUOYE 376 3 86 40:17.0 13:00/M
3 NOELLE NAKAGAWA HONOLULU HI 332 7 98 47:07.2 15:12/M
4 SAGE FOSNOCK 363 9 99 47:16.7 15:15/M
5 NICOLE NAKAGAWA 359 9 102 48:58.7 15:48/M
Top

Female 10 to 14

Place Name City Bib No Age Overall Total Time Pace
1 KATIE HASHIMOTO 404 12 21 25:26.7 8:12/M
2 CADENCE DRISCOLL HONOLULU HI 371 10 57 32:35.0 10:31/M
3 SIRENA SPURRIER 368 11 60 33:20.4 10:45/M
4 ASHLEIGH IVY EWA BEACH HI 308 12 70 36:14.8 11:41/M
5 SHAE KUROKAWA 410 12 90 41:03.5 13:15/M
Top

Female 15 to 19

Place Name City Bib No Age Overall Total Time Pace
1 KATHERINE HIU HONOLULU HI 337 19 62 33:22.5 10:46/M
2 ASHLEY KAWABATA-BONIN HONOLULU HI 340 19 63 33:23.2 10:46/M
3 GABY JELFFS HONOLULU HI 352 16 82 38:44.6 12:30/M
Top

Female 20 to 24

Place Name City Bib No Age Overall Total Time Pace
1 DEANA TAPUELUELU FARMINGTON UT 282 24 47 30:58.5 9:59/M
2 JESSICA SCAFFIDI KAPOLEI HI 287 24 58 32:37.3 10:31/M
Top

Female 25 to 29

Place Name City Bib No Age Overall Total Time Pace
1 KEALAONAPUA OSULLIVAN 394 26 35 28:23.3 9:09/M
2 JOLENE HIGA AUSTIN TX 296 27 39 29:16.7 9:26/M
3 JENNIFER HARTLE SARATOGA SPRINGS UT 304 29 41 29:44.0 9:35/M
4 KATE BALDWIN 397 27 45 30:07.5 9:43/M
5 CARLY FETHEROLF HONOLULU HI 298 29 51 31:20.9 10:06/M
6 MALYNNE SIMEON 400 29 54 31:45.4 10:15/M
7 RAVEN THOMAS EWA BEACH HI 335 26 71 36:17.5 11:42/M
Top

Female 30 to 34

Place Name City Bib No Age Overall Total Time Pace
1 AMBER DRISCOLL HONOLULU HI 329 31 20 25:13.0 8:08/M
2 KRISTAL PARKER CHICAGO IL 320 30 23 25:39.8 8:16/M
3 KELLY COOPER 389 31 25 25:49.3 8:20/M
4 CONNIE CASSIDY EWA BEACH HI 303 31 27 26:09.1 8:26/M
5 ROSEMARIE TAN HONOLULU HI 342 31 29 26:49.8 8:39/M
6 JEANNELE MACEY HONOLULU HI 386 34 36 28:44.2 9:16/M
7 KELLY UYEDA HONOLULU HI 350 34 66 34:19.8 11:04/M
8 AMBER JAMES HONOLULU HI 321 33 68 35:09.8 11:20/M
9 MICCAH MILLER KANEOHE HI 291 32 72 36:47.4 11:52/M
10 NOEL RYSAVY HONOLULU HI 326 32 79 38:14.1 12:20/M
11 AIMEE DIGERONIMO HONOLULU HI 330 32 84 39:42.1 12:48/M
12 TERESA QUINIOLA KANEOHE HI 327 33 104 54:03.1 17:26/M
Top

Female 35 to 39

Place Name City Bib No Age Overall Total Time Pace
1 LOREN MCMILLEN HONOLULU HI 344 36 16 24:23.6 7:52/M
2 JULIA KRAMPE WAHIAWA HI 301 36 43 30:00.9 9:41/M
3 LAURIE BROOKSHIRE MILLBROOK AL 290 37 56 32:32.9 10:30/M
4 SHERINA ALI EWA BEACH HI 322 38 67 35:01.4 11:18/M
5 JACQUELINE NG-OSORIO HONOLULU HI 383 36 76 37:51.9 12:13/M
6 TOMOMI NIES HONOLULU HI 341 36 77 37:56.9 12:14/M
7 MARIA MARTINEZ MILILANI HI 338 36 81 38:33.2 12:26/M
Top

Female 40 to 44

Place Name City Bib No Age Overall Total Time Pace
1 JOY LAM HONOLULU HI 354 41 13 22:52.6 7:23/M
2 KYOUNG LEE BRONX NY 284 43 15 24:23.3 7:52/M
3 GINA CABRERA PEARL CITY HI 305 42 30 26:50.6 8:39/M
4 SHANNON VALLEE HONOLULU HI 295 41 50 31:09.9 10:03/M
5 JESSICA SPURRIER KANEOHE HI 333 44 61 33:20.7 10:45/M
6 STEPHANIE IVY EWA BEACH HI 307 41 75 37:10.1 11:59/M
7 DANIELLE SHROCK SPRINGTOWN TX 378 40 89 40:24.2 13:02/M
8 KAREN DUFFY GLENDORA CA 365 44 91 42:30.5 13:43/M
9 JEN EBERLEIN AIEA HI 345 43 94 46:42.9 15:04/M
10 SUSAN NAKAGAWA HONOLULU HI 311 43 97 47:06.0 15:12/M
11 MARGARET FOSNOCK HONOLULU HI 362 42 100 47:17.6 15:15/M
12 REBECCA ALSUP WAHIAWA HI 313 40 101 48:30.2 15:39/M
13 LIZ MAY HONOLULU HI 366 40 106 54:50.4 17:41/M
Top

Female 45 to 49

Place Name City Bib No Age Overall Total Time Pace
1 SYLVIA BROSIEN HONOLULU HI 334 48 34 28:18.2 9:08/M
2 LIBERTY MARRIOTT WAHIAWA HI 281 48 59 33:14.8 10:43/M
Top

Female 55 to 59

Place Name City Bib No Age Overall Total Time Pace
1 TANYA LAGUATAN WAIPAHU HI 293 57 85 40:03.6 12:55/M
Top

Female 60 to 64

Place Name City Bib No Age Overall Total Time Pace
1 CHRISTINA VU HONOLULU HI 380 62 40 29:23.1 9:29/M
2 AMELIA KACENA KANEOHE HI 328 62 105 54:28.6 17:34/M
3 LORAINE CARLSON 398 62 107 1:01:41.8 19:54/M
Top

Male Open Winners

Place Name City Bib No Age Overall Total Time Pace
1 ASH DUSTOW 392 55 1 18:16.3 5:54/M
2 TYLER SMITH HONOLULU HI 348 30 2 19:47.7 6:23/M
3 THOMAS SCAFFIDI KAPOLEI HI 288 24 3 19:56.7 6:26/M
Top

Male 9 and under

Place Name City Bib No Age Overall Total Time Pace
1 CONNER PALUMBO HONOLULU HI 318 8 31 26:52.1 8:40/M
2 MASON HARTLE 393 8 42 29:46.7 9:36/M
3 JERRY MCCOY 373 8 80 38:32.0 12:26/M
4 DONOVAN MAY 388 9 92 45:53.4 14:48/M
5 WILL EBERLEIN AIEA HI 347 8 93 46:42.2 15:04/M
6 CHRIS EBERLEIN 372 6 95 46:44.0 15:05/M
Top

Male 10 to 14

Place Name City Bib No Age Overall Total Time Pace
1 DYLAN PALUMBO HONOLULU HI 317 10 14 24:10.5 7:48/M
2 JUSTIN MARRIOTT WAHIAWA 358 14 19 25:02.0 8:05/M
3 ANTHONY WALLACE HONOLULU HI 323 13 46 30:17.6 9:46/M
4 JUSTIN LAKE 357 13 48 30:59.5 10:00/M
5 DRAVEN MAY 387 11 69 35:49.9 11:33/M
Top

Male 20 to 24

Place Name City Bib No Age Overall Total Time Pace
1 CHASE KUROKAWA 409 23 55 32:18.0 10:25/M
Top

Male 25 to 29

Place Name City Bib No Age Overall Total Time Pace
1 WAYNE BALDWIN 396 29 4 20:56.6 6:45/M
2 LUKE DEKNEEF 401 28 6 21:01.4 6:47/M
3 ROBERT LEUIRER 403 26 9 22:12.7 7:10/M
4 LOUIE CATANESE HONOLULU HI 349 25 28 26:14.1 8:28/M
5 NATHAN HINOJOSA AUSTIN TX 297 29 38 29:16.3 9:26/M
6 SIO TAPUELUELU FARMINGTON UT 283 29 49 31:06.1 10:02/M
7 ARTURO GUIEB, JR 399 29 53 31:44.8 10:14/M
Top

Male 30 to 34

Place Name City Bib No Age Overall Total Time Pace
1 MIKE YUEN HONOLULU HI 343 33 18 24:47.9 8:00/M
2 ALLYN FETHEROLF HONOLULU HI 299 31 52 31:22.0 10:07/M
3 BARRY MILLER KANEOHE HI 292 32 73 36:48.1 11:52/M
Top

Male 35 to 39

Place Name City Bib No Age Overall Total Time Pace
1 DAN MAY HONOLULU HI 367 35 11 22:19.1 7:12/M
2 KELII BANDMANN 402 38 17 24:26.5 7:53/M
3 KYLE SASAKI 395 39 24 25:47.1 8:19/M
4 DANIEL PALUMBO HONOLULU HI 316 35 32 27:17.6 8:48/M
5 KANEALII NG-OSORIO HONOLULU HI 381 37 78 38:11.9 12:19/M
6 ADRIAN JELFFS HONOLULU HI 351 38 83 38:45.5 12:30/M
7 CHRISTOPHER BUOYE EWA BEACH HI 336 39 87 40:17.6 13:00/M
8 DAVID BROOKSHIRE MILLBROOK AL 289 35 88 40:21.3 13:01/M
9 MIKE EBERLEIN AIEA HI 346 38 96 46:44.6 15:05/M
Top

Male 45 to 49

Place Name City Bib No Age Overall Total Time Pace
1 DANNY GUERPO KAMUELA HI 314 48 8 21:08.9 6:49/M
2 ROBERT ALSUP WAHIAWA HI 312 45 22 25:32.2 8:14/M
3 DONALD CABRERA PEARL CITY HI 306 49 26 25:56.0 8:22/M
4 JERRY MCCOY MILILANI HI 339 48 33 28:04.6 9:03/M
5 SCOTT NAKAGAWA HONOLULU HI 331 48 103 48:59.7 15:48/M
Top

Male 50 to 54

Place Name City Bib No Age Overall Total Time Pace
1 DAVID WILLIAMS RENO NV 364 52 5 20:58.0 6:46/M
2 ATSUSHI KUMAGAI HONOLULU HI 325 51 74 37:06.2 11:58/M
Top

Male 55 to 59

Place Name City Bib No Age Overall Total Time Pace
1 RICKY MARTIN PENSACOLA FL 286 55 37 29:14.6 9:26/M
2 GILBERT LAGUATAN WAIPAHU HI 294 57 64 34:09.0 11:01/M
Top

Male 65 to 69

Place Name City Bib No Age Overall Total Time Pace
1 LESTER MURAOKA HONOLULU HI 379 68 44 30:01.5 9:41/M